Torrejon de Ardoz, Spain
Current Conditions -  °F | °C
As of 9:00 PM on Thursday 27 Nov 2014 (Local Time) from LETO Reporting Station
Few Clouds Few Clouds  
Wind Chill: 52°   Ceiling: Unl
Heat Index: 52°   Visibility: 6mi
Dew Point: 48°   Wind: 13mph
Humidity: 88%   Direction: 150°SSE
Pressure: 29.32"   Gusts: NA
Location:  40.46°N, 3.47°W
Report Text: LETO 272000Z 15011KT 9999 FEW040 11/09 Q0993 NOSIG
Loading
Personal Weather Stations






























Interactive Weather Map New forecast layout! Learn more

10-Day Weather Forecast

Advertisements
Track Severe Weather on mobile